sensor_id;sensor_type;location;lat;lon;timestamp;P1;durP1;ratioP1;P2;durP2;ratioP2
10277;SDS011;5184;51.376;7.148;2023-08-06T00:01:31;5.20;;;3.60;;
10277;SDS011;5184;51.376;7.148;2023-08-06T00:03:58;6.00;;;4.27;;
10277;SDS011;5184;51.376;7.148;2023-08-06T00:06:26;4.67;;;4.00;;
10277;SDS011;5184;51.376;7.148;2023-08-06T00:08:52;4.83;;;3.97;;
10277;SDS011;5184;51.376;7.148;2023-08-06T00:11:19;4.83;;;3.83;;
10277;SDS011;5184;51.376;7.148;2023-08-06T00:13:46;4.33;;;3.93;;
10277;SDS011;5184;51.376;7.148;2023-08-06T00:16:12;6.40;;;4.03;;
10277;SDS011;5184;51.376;7.148;2023-08-06T00:18:39;4.37;;;3.97;;
10277;SDS011;5184;51.376;7.148;2023-08-06T00:21:06;5.20;;;3.90;;
10277;SDS011;5184;51.376;7.148;2023-08-06T00:23:33;4.80;;;4.23;;
10277;SDS011;5184;51.376;7.148;2023-08-06T00:26:00;7.50;;;4.53;;
10277;SDS011;5184;51.376;7.148;2023-08-06T00:28:26;4.97;;;4.47;;
10277;SDS011;5184;51.376;7.148;2023-08-06T00:30:54;4.80;;;4.10;;
10277;SDS011;5184;51.376;7.148;2023-08-06T00:33:22;5.27;;;3.90;;
10277;SDS011;5184;51.376;7.148;2023-08-06T00:35:48;4.87;;;4.43;;
10277;SDS011;5184;51.376;7.148;2023-08-06T00:38:14;5.63;;;4.50;;
10277;SDS011;5184;51.376;7.148;2023-08-06T00:40:42;6.10;;;4.23;;
10277;SDS011;5184;51.376;7.148;2023-08-06T00:43:09;6.30;;;4.60;;
10277;SDS011;5184;51.376;7.148;2023-08-06T00:45:37;6.07;;;4.20;;
10277;SDS011;5184;51.376;7.148;2023-08-06T00:48:03;5.63;;;4.30;;
10277;SDS011;5184;51.376;7.148;2023-08-06T00:50:30;5.93;;;4.50;;
10277;SDS011;5184;51.376;7.148;2023-08-06T00:52:56;6.60;;;4.37;;
10277;SDS011;5184;51.376;7.148;2023-08-06T00:55:23;4.20;;;3.80;;
10277;SDS011;5184;51.376;7.148;2023-08-06T00:57:50;5.60;;;4.17;;
10277;SDS011;5184;51.376;7.148;2023-08-06T01:00:18;4.57;;;4.00;;
10277;SDS011;5184;51.376;7.148;2023-08-06T01:02:44;5.37;;;4.33;;
10277;SDS011;5184;51.376;7.148;2023-08-06T01:05:11;5.63;;;4.63;;
10277;SDS011;5184;51.376;7.148;2023-08-06T01:10:30;4.93;;;4.40;;
10277;SDS011;5184;51.376;7.148;2023-08-06T01:13:03;5.87;;;4.10;;
10277;SDS011;5184;51.376;7.148;2023-08-06T01:15:42;5.40;;;4.00;;
10277;SDS011;5184;51.376;7.148;2023-08-06T01:18:07;5.27;;;3.77;;
10277;SDS011;5184;51.376;7.148;2023-08-06T01:20:34;5.97;;;4.47;;
10277;SDS011;5184;51.376;7.148;2023-08-06T01:23:01;6.30;;;4.27;;
10277;SDS011;5184;51.376;7.148;2023-08-06T01:25:31;5.20;;;4.10;;
10277;SDS011;5184;51.376;7.148;2023-08-06T01:28:00;4.80;;;4.37;;
10277;SDS011;5184;51.376;7.148;2023-08-06T01:30:26;6.47;;;4.33;;
10277;SDS011;5184;51.376;7.148;2023-08-06T01:32:53;5.20;;;4.30;;
10277;SDS011;5184;51.376;7.148;2023-08-06T01:35:19;7.93;;;4.30;;
10277;SDS011;5184;51.376;7.148;2023-08-06T01:37:46;8.07;;;4.30;;
10277;SDS011;5184;51.376;7.148;2023-08-06T01:40:13;5.50;;;4.27;;
10277;SDS011;5184;51.376;7.148;2023-08-06T01:42:40;4.97;;;4.40;;
10277;SDS011;5184;51.376;7.148;2023-08-06T01:45:07;4.80;;;4.30;;
10277;SDS011;5184;51.376;7.148;2023-08-06T01:47:33;4.70;;;4.30;;
10277;SDS011;5184;51.376;7.148;2023-08-06T01:50:01;5.50;;;4.40;;
10277;SDS011;5184;51.376;7.148;2023-08-06T01:52:27;4.30;;;3.90;;
10277;SDS011;5184;51.376;7.148;2023-08-06T01:54:54;4.93;;;4.43;;
10277;SDS011;5184;51.376;7.148;2023-08-06T01:57:21;4.77;;;4.20;;
10277;SDS011;5184;51.376;7.148;2023-08-06T01:59:47;4.90;;;4.43;;
10277;SDS011;5184;51.376;7.148;2023-08-06T02:02:14;6.03;;;4.27;;
10277;SDS011;5184;51.376;7.148;2023-08-06T02:04:41;5.43;;;4.10;;
10277;SDS011;5184;51.376;7.148;2023-08-06T02:07:08;5.77;;;3.87;;
10277;SDS011;5184;51.376;7.148;2023-08-06T02:09:34;6.40;;;4.03;;
10277;SDS011;5184;51.376;7.148;2023-08-06T02:12:01;5.57;;;3.87;;
10277;SDS011;5184;51.376;7.148;2023-08-06T02:14:28;4.63;;;4.20;;
10277;SDS011;5184;51.376;7.148;2023-08-06T02:16:54;5.50;;;4.13;;
10277;SDS011;5184;51.376;7.148;2023-08-06T02:19:21;4.53;;;4.07;;
10277;SDS011;5184;51.376;7.148;2023-08-06T02:21:49;6.70;;;3.83;;
10277;SDS011;5184;51.376;7.148;2023-08-06T02:24:15;5.27;;;3.97;;
10277;SDS011;5184;51.376;7.148;2023-08-06T02:26:42;5.40;;;4.10;;
10277;SDS011;5184;51.376;7.148;2023-08-06T02:29:09;4.03;;;3.67;;
10277;SDS011;5184;51.376;7.148;2023-08-06T02:31:35;4.17;;;3.77;;
10277;SDS011;5184;51.376;7.148;2023-08-06T02:34:02;4.77;;;3.83;;
10277;SDS011;5184;51.376;7.148;2023-08-06T02:36:29;4.07;;;3.67;;
10277;SDS011;5184;51.376;7.148;2023-08-06T02:38:55;4.57;;;3.87;;
10277;SDS011;5184;51.376;7.148;2023-08-06T02:41:22;4.20;;;3.80;;
10277;SDS011;5184;51.376;7.148;2023-08-06T02:43:49;6.00;;;3.90;;
10277;SDS011;5184;51.376;7.148;2023-08-06T02:46:16;4.90;;;4.03;;
10277;SDS011;5184;51.376;7.148;2023-08-06T02:48:43;5.73;;;4.00;;
10277;SDS011;5184;51.376;7.148;2023-08-06T02:51:10;4.10;;;3.80;;
10277;SDS011;5184;51.376;7.148;2023-08-06T02:53:36;5.50;;;3.60;;
10277;SDS011;5184;51.376;7.148;2023-08-06T02:56:03;4.00;;;3.40;;
10277;SDS011;5184;51.376;7.148;2023-08-06T02:58:30;4.03;;;3.63;;
10277;SDS011;5184;51.376;7.148;2023-08-06T03:01:00;3.93;;;3.63;;
10277;SDS011;5184;51.376;7.148;2023-08-06T03:03:29;4.23;;;3.50;;
10277;SDS011;5184;51.376;7.148;2023-08-06T03:05:55;4.27;;;3.60;;
10277;SDS011;5184;51.376;7.148;2023-08-06T03:08:22;5.07;;;3.77;;
10277;SDS011;5184;51.376;7.148;2023-08-06T03:10:50;4.00;;;3.37;;
10277;SDS011;5184;51.376;7.148;2023-08-06T03:13:16;4.00;;;3.30;;
10277;SDS011;5184;51.376;7.148;2023-08-06T03:15:43;4.37;;;3.43;;
10277;SDS011;5184;51.376;7.148;2023-08-06T03:18:09;4.23;;;3.83;;
10277;SDS011;5184;51.376;7.148;2023-08-06T03:20:37;4.00;;;3.60;;
10277;SDS011;5184;51.376;7.148;2023-08-06T03:23:04;6.27;;;3.77;;
10277;SDS011;5184;51.376;7.148;2023-08-06T03:25:31;5.20;;;3.57;;
10277;SDS011;5184;51.376;7.148;2023-08-06T03:27:57;3.53;;;3.20;;
10277;SDS011;5184;51.376;7.148;2023-08-06T03:30:24;3.80;;;3.50;;
10277;SDS011;5184;51.376;7.148;2023-08-06T03:32:50;4.27;;;3.73;;
10277;SDS011;5184;51.376;7.148;2023-08-06T03:35:17;7.63;;;4.00;;
10277;SDS011;5184;51.376;7.148;2023-08-06T03:37:44;4.63;;;3.70;;
10277;SDS011;5184;51.376;7.148;2023-08-06T03:40:12;4.23;;;3.60;;
10277;SDS011;5184;51.376;7.148;2023-08-06T03:42:38;5.93;;;3.77;;
10277;SDS011;5184;51.376;7.148;2023-08-06T03:45:05;5.80;;;3.37;;
10277;SDS011;5184;51.376;7.148;2023-08-06T03:47:33;4.87;;;3.80;;
10277;SDS011;5184;51.376;7.148;2023-08-06T03:50:00;3.70;;;3.37;;
10277;SDS011;5184;51.376;7.148;2023-08-06T03:52:27;4.67;;;3.57;;
10277;SDS011;5184;51.376;7.148;2023-08-06T03:54:54;3.73;;;3.40;;
10277;SDS011;5184;51.376;7.148;2023-08-06T03:57:20;4.13;;;3.60;;
10277;SDS011;5184;51.376;7.148;2023-08-06T03:59:48;3.73;;;2.90;;
10277;SDS011;5184;51.376;7.148;2023-08-06T04:02:15;6.83;;;3.67;;
10277;SDS011;5184;51.376;7.148;2023-08-06T04:04:42;4.57;;;3.77;;
10277;SDS011;5184;51.376;7.148;2023-08-06T04:07:09;4.70;;;3.50;;
10277;SDS011;5184;51.376;7.148;2023-08-06T04:09:50;3.97;;;3.50;;
10277;SDS011;5184;51.376;7.148;2023-08-06T04:12:02;4.37;;;3.60;;
10277;SDS011;5184;51.376;7.148;2023-08-06T04:14:29;6.17;;;3.87;;
10277;SDS011;5184;51.376;7.148;2023-08-06T04:16:56;4.73;;;3.70;;
10277;SDS011;5184;51.376;7.148;2023-08-06T04:19:23;4.37;;;3.50;;
10277;SDS011;5184;51.376;7.148;2023-08-06T04:21:49;4.03;;;3.43;;
10277;SDS011;5184;51.376;7.148;2023-08-06T04:24:16;4.87;;;3.63;;
10277;SDS011;5184;51.376;7.148;2023-08-06T04:26:43;3.70;;;3.33;;
10277;SDS011;5184;51.376;7.148;2023-08-06T04:29:09;3.70;;;3.40;;
10277;SDS011;5184;51.376;7.148;2023-08-06T04:31:36;5.20;;;3.93;;
10277;SDS011;5184;51.376;7.148;2023-08-06T04:34:04;4.43;;;3.57;;
10277;SDS011;5184;51.376;7.148;2023-08-06T04:36:31;4.67;;;3.80;;
10277;SDS011;5184;51.376;7.148;2023-08-06T04:38:57;3.50;;;3.20;;
10277;SDS011;5184;51.376;7.148;2023-08-06T04:41:24;3.47;;;3.03;;
10277;SDS011;5184;51.376;7.148;2023-08-06T04:43:50;3.70;;;3.20;;
10277;SDS011;5184;51.376;7.148;2023-08-06T04:46:17;6.23;;;3.50;;
10277;SDS011;5184;51.376;7.148;2023-08-06T04:48:43;5.13;;;3.43;;
10277;SDS011;5184;51.376;7.148;2023-08-06T04:51:10;5.07;;;3.00;;
10277;SDS011;5184;51.376;7.148;2023-08-06T04:53:37;4.43;;;3.43;;
10277;SDS011;5184;51.376;7.148;2023-08-06T04:56:03;4.00;;;3.60;;
10277;SDS011;5184;51.376;7.148;2023-08-06T04:58:30;3.93;;;3.30;;
10277;SDS011;5184;51.376;7.148;2023-08-06T05:00:56;4.33;;;3.17;;
10277;SDS011;5184;51.376;7.148;2023-08-06T05:03:23;4.33;;;3.43;;
10277;SDS011;5184;51.376;7.148;2023-08-06T05:05:50;6.40;;;3.50;;
10277;SDS011;5184;51.376;7.148;2023-08-06T05:08:17;3.43;;;3.10;;
10277;SDS011;5184;51.376;7.148;2023-08-06T05:10:45;3.57;;;3.10;;
10277;SDS011;5184;51.376;7.148;2023-08-06T05:13:11;4.03;;;3.63;;
10277;SDS011;5184;51.376;7.148;2023-08-06T05:15:38;3.73;;;3.20;;
10277;SDS011;5184;51.376;7.148;2023-08-06T05:18:04;8.27;;;3.07;;
10277;SDS011;5184;51.376;7.148;2023-08-06T05:20:31;3.50;;;3.20;;
10277;SDS011;5184;51.376;7.148;2023-08-06T05:22:57;5.23;;;3.53;;
10277;SDS011;5184;51.376;7.148;2023-08-06T05:25:25;3.97;;;3.40;;
10277;SDS011;5184;51.376;7.148;2023-08-06T05:27:51;3.30;;;3.00;;
10277;SDS011;5184;51.376;7.148;2023-08-06T05:30:18;4.97;;;3.50;;
10277;SDS011;5184;51.376;7.148;2023-08-06T05:32:44;3.70;;;3.40;;
10277;SDS011;5184;51.376;7.148;2023-08-06T05:35:11;4.53;;;3.00;;
10277;SDS011;5184;51.376;7.148;2023-08-06T05:37:38;6.73;;;3.30;;
10277;SDS011;5184;51.376;7.148;2023-08-06T05:40:05;3.90;;;3.30;;
10277;SDS011;5184;51.376;7.148;2023-08-06T05:42:32;4.27;;;3.40;;
10277;SDS011;5184;51.376;7.148;2023-08-06T05:44:59;3.90;;;3.30;;
10277;SDS011;5184;51.376;7.148;2023-08-06T05:47:26;3.93;;;2.77;;
10277;SDS011;5184;51.376;7.148;2023-08-06T05:49:53;4.50;;;2.90;;
10277;SDS011;5184;51.376;7.148;2023-08-06T05:52:21;4.43;;;3.30;;
10277;SDS011;5184;51.376;7.148;2023-08-06T05:54:47;4.47;;;2.97;;
10277;SDS011;5184;51.376;7.148;2023-08-06T05:57:14;5.13;;;2.97;;
10277;SDS011;5184;51.376;7.148;2023-08-06T05:59:41;5.67;;;3.20;;
10277;SDS011;5184;51.376;7.148;2023-08-06T06:02:07;4.47;;;3.13;;
10277;SDS011;5184;51.376;7.148;2023-08-06T06:04:34;3.80;;;3.13;;
10277;SDS011;5184;51.376;7.148;2023-08-06T06:07:00;5.40;;;3.40;;
10277;SDS011;5184;51.376;7.148;2023-08-06T06:09:28;4.50;;;3.17;;
10277;SDS011;5184;51.376;7.148;2023-08-06T06:11:55;5.83;;;3.27;;
10277;SDS011;5184;51.376;7.148;2023-08-06T06:14:22;5.33;;;3.07;;
10277;SDS011;5184;51.376;7.148;2023-08-06T06:16:49;3.33;;;2.97;;
10277;SDS011;5184;51.376;7.148;2023-08-06T06:19:16;5.63;;;2.97;;
10277;SDS011;5184;51.376;7.148;2023-08-06T06:21:42;4.93;;;3.23;;
10277;SDS011;5184;51.376;7.148;2023-08-06T06:24:09;4.93;;;3.30;;
10277;SDS011;5184;51.376;7.148;2023-08-06T06:26:35;4.30;;;3.03;;
10277;SDS011;5184;51.376;7.148;2023-08-06T06:29:02;3.63;;;3.00;;
10277;SDS011;5184;51.376;7.148;2023-08-06T06:31:29;2.97;;;2.77;;
10277;SDS011;5184;51.376;7.148;2023-08-06T06:33:55;4.17;;;3.10;;
10277;SDS011;5184;51.376;7.148;2023-08-06T06:36:22;4.70;;;3.13;;
10277;SDS011;5184;51.376;7.148;2023-08-06T06:38:48;4.27;;;2.70;;
10277;SDS011;5184;51.376;7.148;2023-08-06T06:41:15;4.13;;;2.80;;
10277;SDS011;5184;51.376;7.148;2023-08-06T06:43:42;3.70;;;2.70;;
10277;SDS011;5184;51.376;7.148;2023-08-06T06:46:09;4.07;;;2.90;;
10277;SDS011;5184;51.376;7.148;2023-08-06T06:48:36;3.10;;;2.60;;
10277;SDS011;5184;51.376;7.148;2023-08-06T06:51:04;2.87;;;2.43;;
10277;SDS011;5184;51.376;7.148;2023-08-06T06:53:30;3.27;;;2.57;;
10277;SDS011;5184;51.376;7.148;2023-08-06T06:56:01;3.57;;;2.60;;
10277;SDS011;5184;51.376;7.148;2023-08-06T06:58:28;3.03;;;2.60;;
10277;SDS011;5184;51.376;7.148;2023-08-06T07:00:55;3.37;;;2.27;;
10277;SDS011;5184;51.376;7.148;2023-08-06T07:03:21;3.87;;;2.47;;
10277;SDS011;5184;51.376;7.148;2023-08-06T07:05:48;3.17;;;2.13;;
10277;SDS011;5184;51.376;7.148;2023-08-06T07:08:15;3.23;;;2.47;;
10277;SDS011;5184;51.376;7.148;2023-08-06T07:10:43;2.20;;;2.00;;
10277;SDS011;5184;51.376;7.148;2023-08-06T07:13:10;3.90;;;2.30;;
10277;SDS011;5184;51.376;7.148;2023-08-06T07:15:37;2.43;;;2.07;;
10277;SDS011;5184;51.376;7.148;2023-08-06T07:18:04;3.93;;;2.27;;
10277;SDS011;5184;51.376;7.148;2023-08-06T07:20:31;2.27;;;1.90;;
10277;SDS011;5184;51.376;7.148;2023-08-06T07:22:58;2.30;;;1.70;;
10277;SDS011;5184;51.376;7.148;2023-08-06T07:25:24;5.97;;;1.90;;
10277;SDS011;5184;51.376;7.148;2023-08-06T07:27:51;2.30;;;1.70;;
10277;SDS011;5184;51.376;7.148;2023-08-06T07:30:18;2.00;;;1.53;;
10277;SDS011;5184;51.376;7.148;2023-08-06T07:32:44;2.83;;;1.70;;
10277;SDS011;5184;51.376;7.148;2023-08-06T07:35:12;1.80;;;1.40;;
10277;SDS011;5184;51.376;7.148;2023-08-06T07:37:39;2.20;;;1.57;;
10277;SDS011;5184;51.376;7.148;2023-08-06T07:40:07;1.57;;;1.33;;
10277;SDS011;5184;51.376;7.148;2023-08-06T07:42:33;2.17;;;1.53;;
10277;SDS011;5184;51.376;7.148;2023-08-06T07:45:01;1.87;;;1.50;;
10277;SDS011;5184;51.376;7.148;2023-08-06T07:47:27;2.40;;;1.50;;
10277;SDS011;5184;51.376;7.148;2023-08-06T07:49:55;1.73;;;1.40;;
10277;SDS011;5184;51.376;7.148;2023-08-06T07:52:22;2.00;;;1.40;;
10277;SDS011;5184;51.376;7.148;2023-08-06T07:54:49;1.93;;;1.50;;
10277;SDS011;5184;51.376;7.148;2023-08-06T07:57:15;1.93;;;1.60;;
10277;SDS011;5184;51.376;7.148;2023-08-06T07:59:42;2.27;;;1.47;;
10277;SDS011;5184;51.376;7.148;2023-08-06T08:02:08;1.90;;;1.70;;
10277;SDS011;5184;51.376;7.148;2023-08-06T08:04:35;2.90;;;1.70;;
10277;SDS011;5184;51.376;7.148;2023-08-06T08:07:02;3.13;;;1.70;;
10277;SDS011;5184;51.376;7.148;2023-08-06T08:09:30;2.40;;;1.37;;
10277;SDS011;5184;51.376;7.148;2023-08-06T08:11:57;3.13;;;1.57;;
10277;SDS011;5184;51.376;7.148;2023-08-06T08:14:24;1.73;;;1.60;;
10277;SDS011;5184;51.376;7.148;2023-08-06T08:16:50;2.30;;;1.70;;
10277;SDS011;5184;51.376;7.148;2023-08-06T08:19:17;2.60;;;1.70;;
10277;SDS011;5184;51.376;7.148;2023-08-06T08:21:43;3.27;;;1.73;;
10277;SDS011;5184;51.376;7.148;2023-08-06T08:24:10;2.50;;;1.87;;
10277;SDS011;5184;51.376;7.148;2023-08-06T08:26:37;2.97;;;1.83;;
10277;SDS011;5184;51.376;7.148;2023-08-06T08:29:05;2.20;;;1.80;;
10277;SDS011;5184;51.376;7.148;2023-08-06T08:31:31;2.50;;;1.67;;
10277;SDS011;5184;51.376;7.148;2023-08-06T08:36:41;2.20;;;1.60;;
10277;SDS011;5184;51.376;7.148;2023-08-06T08:39:07;2.43;;;2.00;;
10277;SDS011;5184;51.376;7.148;2023-08-06T08:41:36;3.10;;;1.90;;
10277;SDS011;5184;51.376;7.148;2023-08-06T08:44:01;2.30;;;1.83;;
10277;SDS011;5184;51.376;7.148;2023-08-06T08:46:29;1.90;;;1.70;;
10277;SDS011;5184;51.376;7.148;2023-08-06T08:48:55;3.43;;;2.00;;
10277;SDS011;5184;51.376;7.148;2023-08-06T08:51:23;2.60;;;1.80;;
10277;SDS011;5184;51.376;7.148;2023-08-06T08:53:49;2.83;;;1.90;;
10277;SDS011;5184;51.376;7.148;2023-08-06T08:56:16;2.63;;;1.73;;
10277;SDS011;5184;51.376;7.148;2023-08-06T08:58:43;2.10;;;1.70;;
10277;SDS011;5184;51.376;7.148;2023-08-06T09:01:09;3.77;;;1.77;;
10277;SDS011;5184;51.376;7.148;2023-08-06T09:03:36;1.60;;;1.50;;
10277;SDS011;5184;51.376;7.148;2023-08-06T09:06:03;2.27;;;1.60;;
10277;SDS011;5184;51.376;7.148;2023-08-06T09:08:34;3.67;;;1.63;;
10277;SDS011;5184;51.376;7.148;2023-08-06T09:10:57;2.03;;;1.50;;
10277;SDS011;5184;51.376;7.148;2023-08-06T09:13:25;2.20;;;1.60;;
10277;SDS011;5184;51.376;7.148;2023-08-06T09:15:51;2.30;;;1.73;;
10277;SDS011;5184;51.376;7.148;2023-08-06T09:18:26;2.00;;;1.73;;
10277;SDS011;5184;51.376;7.148;2023-08-06T09:20:53;2.27;;;1.80;;
10277;SDS011;5184;51.376;7.148;2023-08-06T09:23:20;2.43;;;2.00;;
10277;SDS011;5184;51.376;7.148;2023-08-06T09:25:48;2.97;;;1.73;;
10277;SDS011;5184;51.376;7.148;2023-08-06T09:28:15;2.83;;;1.80;;
10277;SDS011;5184;51.376;7.148;2023-08-06T09:30:42;3.80;;;1.97;;
10277;SDS011;5184;51.376;7.148;2023-08-06T09:33:09;4.27;;;2.20;;
10277;SDS011;5184;51.376;7.148;2023-08-06T09:35:37;2.93;;;2.30;;
10277;SDS011;5184;51.376;7.148;2023-08-06T09:38:05;3.37;;;2.30;;
10277;SDS011;5184;51.376;7.148;2023-08-06T09:40:32;2.97;;;2.17;;
10277;SDS011;5184;51.376;7.148;2023-08-06T09:42:59;3.57;;;2.53;;
10277;SDS011;5184;51.376;7.148;2023-08-06T09:45:30;2.60;;;2.03;;
10277;SDS011;5184;51.376;7.148;2023-08-06T09:47:56;3.83;;;2.77;;
10277;SDS011;5184;51.376;7.148;2023-08-06T09:50:22;4.20;;;3.00;;
10277;SDS011;5184;51.376;7.148;2023-08-06T09:52:50;3.80;;;2.90;;
10277;SDS011;5184;51.376;7.148;2023-08-06T09:55:16;4.30;;;3.07;;
10277;SDS011;5184;51.376;7.148;2023-08-06T09:57:44;3.13;;;2.83;;
10277;SDS011;5184;51.376;7.148;2023-08-06T10:00:11;4.63;;;2.93;;
10277;SDS011;5184;51.376;7.148;2023-08-06T10:02:38;3.10;;;2.70;;
10277;SDS011;5184;51.376;7.148;2023-08-06T10:05:05;3.53;;;2.97;;
10277;SDS011;5184;51.376;7.148;2023-08-06T10:07:32;3.30;;;2.83;;
10277;SDS011;5184;51.376;7.148;2023-08-06T10:09:59;5.83;;;2.90;;
10277;SDS011;5184;51.376;7.148;2023-08-06T10:12:26;6.47;;;3.20;;
10277;SDS011;5184;51.376;7.148;2023-08-06T10:14:53;3.30;;;3.00;;
10277;SDS011;5184;51.376;7.148;2023-08-06T10:17:20;3.87;;;3.07;;
10277;SDS011;5184;51.376;7.148;2023-08-06T10:19:47;3.47;;;3.10;;
10277;SDS011;5184;51.376;7.148;2023-08-06T10:22:14;3.67;;;3.37;;
10277;SDS011;5184;51.376;7.148;2023-08-06T10:24:45;5.40;;;3.43;;
10277;SDS011;5184;51.376;7.148;2023-08-06T10:27:12;3.67;;;3.20;;
10277;SDS011;5184;51.376;7.148;2023-08-06T10:29:38;4.27;;;3.40;;
10277;SDS011;5184;51.376;7.148;2023-08-06T10:32:05;3.87;;;3.00;;
10277;SDS011;5184;51.376;7.148;2023-08-06T10:35:04;4.37;;;3.90;;
10277;SDS011;5184;51.376;7.148;2023-08-06T10:37:19;4.30;;;3.03;;
10277;SDS011;5184;51.376;7.148;2023-08-06T10:39:49;3.33;;;3.03;;
10277;SDS011;5184;51.376;7.148;2023-08-06T10:42:20;5.90;;;2.93;;
10277;SDS011;5184;51.376;7.148;2023-08-06T10:45:19;3.23;;;2.63;;
10277;SDS011;5184;51.376;7.148;2023-08-06T10:47:38;4.73;;;2.80;;
10277;SDS011;5184;51.376;7.148;2023-08-06T10:50:05;4.27;;;3.87;;
10277;SDS011;5184;51.376;7.148;2023-08-06T10:52:33;4.70;;;4.17;;
10277;SDS011;5184;51.376;7.148;2023-08-06T10:54:59;5.20;;;4.43;;
10277;SDS011;5184;51.376;7.148;2023-08-06T10:57:26;5.63;;;4.87;;
10277;SDS011;5184;51.376;7.148;2023-08-06T10:59:52;6.00;;;4.90;;
10277;SDS011;5184;51.376;7.148;2023-08-06T11:02:20;6.00;;;4.50;;
10277;SDS011;5184;51.376;7.148;2023-08-06T11:04:48;5.83;;;5.00;;
10277;SDS011;5184;51.376;7.148;2023-08-06T11:07:14;6.07;;;5.47;;
10277;SDS011;5184;51.376;7.148;2023-08-06T11:09:42;6.53;;;5.20;;
10277;SDS011;5184;51.376;7.148;2023-08-06T11:12:09;6.33;;;5.73;;
10277;SDS011;5184;51.376;7.148;2023-08-06T11:14:36;7.93;;;6.87;;
10277;SDS011;5184;51.376;7.148;2023-08-06T11:17:02;8.47;;;7.43;;
10277;SDS011;5184;51.376;7.148;2023-08-06T11:19:30;9.57;;;8.57;;
10277;SDS011;5184;51.376;7.148;2023-08-06T11:21:57;9.13;;;8.23;;
10277;SDS011;5184;51.376;7.148;2023-08-06T11:24:24;9.97;;;8.33;;
10277;SDS011;5184;51.376;7.148;2023-08-06T11:26:50;9.07;;;7.60;;
10277;SDS011;5184;51.376;7.148;2023-08-06T11:29:17;8.13;;;7.33;;
10277;SDS011;5184;51.376;7.148;2023-08-06T11:31:43;8.00;;;7.30;;
10277;SDS011;5184;51.376;7.148;2023-08-06T11:34:10;6.53;;;5.97;;
10277;SDS011;5184;51.376;7.148;2023-08-06T11:36:39;6.33;;;5.83;;
10277;SDS011;5184;51.376;7.148;2023-08-06T11:39:03;5.03;;;4.63;;
10277;SDS011;5184;51.376;7.148;2023-08-06T11:41:30;4.03;;;3.73;;
10277;SDS011;5184;51.376;7.148;2023-08-06T11:43:58;3.17;;;2.97;;
10277;SDS011;5184;51.376;7.148;2023-08-06T11:46:25;3.30;;;3.00;;
10277;SDS011;5184;51.376;7.148;2023-08-06T11:48:52;2.77;;;2.57;;
10277;SDS011;5184;51.376;7.148;2023-08-06T11:51:18;2.00;;;1.10;;
10277;SDS011;5184;51.376;7.148;2023-08-06T11:53:48;1.20;;;1.10;;
10277;SDS011;5184;51.376;7.148;2023-08-06T11:56:16;1.10;;;1.10;;
10277;SDS011;5184;51.376;7.148;2023-08-06T11:58:42;1.80;;;1.20;;
10277;SDS011;5184;51.376;7.148;2023-08-06T12:01:09;2.10;;;1.63;;
10277;SDS011;5184;51.376;7.148;2023-08-06T12:03:39;1.63;;;1.53;;
10277;SDS011;5184;51.376;7.148;2023-08-06T12:06:05;2.30;;;2.10;;
10277;SDS011;5184;51.376;7.148;2023-08-06T12:08:32;2.50;;;2.10;;
10277;SDS011;5184;51.376;7.148;2023-08-06T12:10:59;3.10;;;2.00;;
10277;SDS011;5184;51.376;7.148;2023-08-06T12:13:26;2.13;;;1.97;;
10277;SDS011;5184;51.376;7.148;2023-08-06T12:15:53;2.40;;;2.20;;
10277;SDS011;5184;51.376;7.148;2023-08-06T12:18:19;2.30;;;2.03;;
10277;SDS011;5184;51.376;7.148;2023-08-06T12:20:46;4.27;;;2.67;;
10277;SDS011;5184;51.376;7.148;2023-08-06T12:23:12;2.70;;;2.30;;
10277;SDS011;5184;51.376;7.148;2023-08-06T12:25:40;2.33;;;2.13;;
10277;SDS011;5184;51.376;7.148;2023-08-06T12:28:06;2.27;;;2.13;;
10277;SDS011;5184;51.376;7.148;2023-08-06T12:30:33;2.30;;;2.10;;
10277;SDS011;5184;51.376;7.148;2023-08-06T12:33:00;2.07;;;1.87;;
10277;SDS011;5184;51.376;7.148;2023-08-06T12:35:26;1.83;;;1.73;;
10277;SDS011;5184;51.376;7.148;2023-08-06T12:37:53;1.77;;;1.33;;
10277;SDS011;5184;51.376;7.148;2023-08-06T12:40:20;1.60;;;1.50;;
10277;SDS011;5184;51.376;7.148;2023-08-06T12:42:49;1.50;;;1.40;;
10277;SDS011;5184;51.376;7.148;2023-08-06T12:45:14;1.87;;;1.23;;
10277;SDS011;5184;51.376;7.148;2023-08-06T12:47:41;1.50;;;1.40;;
10277;SDS011;5184;51.376;7.148;2023-08-06T12:50:07;1.70;;;1.60;;
10277;SDS011;5184;51.376;7.148;2023-08-06T12:52:35;1.87;;;1.60;;
10277;SDS011;5184;51.376;7.148;2023-08-06T12:55:02;1.40;;;1.30;;
10277;SDS011;5184;51.376;7.148;2023-08-06T12:57:28;2.53;;;1.63;;
10277;SDS011;5184;51.376;7.148;2023-08-06T12:59:55;2.13;;;1.70;;
10277;SDS011;5184;51.376;7.148;2023-08-06T13:02:21;2.00;;;1.80;;
10277;SDS011;5184;51.376;7.148;2023-08-06T13:04:48;2.83;;;2.10;;
10277;SDS011;5184;51.376;7.148;2023-08-06T13:07:15;2.23;;;1.90;;
10277;SDS011;5184;51.376;7.148;2023-08-06T13:09:42;2.40;;;2.20;;
10277;SDS011;5184;51.376;7.148;2023-08-06T13:12:09;2.50;;;2.30;;
10277;SDS011;5184;51.376;7.148;2023-08-06T13:14:36;2.40;;;2.20;;
10277;SDS011;5184;51.376;7.148;2023-08-06T13:17:03;3.40;;;2.60;;
10277;SDS011;5184;51.376;7.148;2023-08-06T13:19:30;3.00;;;2.47;;
10277;SDS011;5184;51.376;7.148;2023-08-06T13:21:59;2.93;;;2.67;;
10277;SDS011;5184;51.376;7.148;2023-08-06T13:24:25;2.80;;;2.60;;
10277;SDS011;5184;51.376;7.148;2023-08-06T13:26:53;3.27;;;2.83;;
10277;SDS011;5184;51.376;7.148;2023-08-06T13:29:19;3.20;;;2.87;;
10277;SDS011;5184;51.376;7.148;2023-08-06T13:31:46;4.20;;;3.00;;
10277;SDS011;5184;51.376;7.148;2023-08-06T13:34:12;3.07;;;2.77;;
10277;SDS011;5184;51.376;7.148;2023-08-06T13:36:39;3.47;;;2.50;;
10277;SDS011;5184;51.376;7.148;2023-08-06T13:39:06;2.40;;;2.20;;
10277;SDS011;5184;51.376;7.148;2023-08-06T13:41:33;2.53;;;2.20;;
10277;SDS011;5184;51.376;7.148;2023-08-06T13:44:00;2.60;;;2.40;;
10277;SDS011;5184;51.376;7.148;2023-08-06T13:46:27;2.60;;;2.40;;
10277;SDS011;5184;51.376;7.148;2023-08-06T13:48:54;2.70;;;2.50;;
10277;SDS011;5184;51.376;7.148;2023-08-06T13:51:21;3.10;;;2.90;;
10277;SDS011;5184;51.376;7.148;2023-08-06T13:53:48;3.03;;;2.80;;
10277;SDS011;5184;51.376;7.148;2023-08-06T13:56:14;4.20;;;3.10;;
10277;SDS011;5184;51.376;7.148;2023-08-06T13:58:41;2.90;;;2.60;;
10277;SDS011;5184;51.376;7.148;2023-08-06T14:01:09;3.60;;;2.97;;
10277;SDS011;5184;51.376;7.148;2023-08-06T14:03:34;3.37;;;3.10;;
10277;SDS011;5184;51.376;7.148;2023-08-06T14:06:01;3.30;;;3.00;;
10277;SDS011;5184;51.376;7.148;2023-08-06T14:08:27;3.77;;;3.40;;
10277;SDS011;5184;51.376;7.148;2023-08-06T14:10:55;4.60;;;3.50;;
10277;SDS011;5184;51.376;7.148;2023-08-06T14:13:21;4.50;;;4.00;;
10277;SDS011;5184;51.376;7.148;2023-08-06T14:15:48;4.63;;;3.93;;
10277;SDS011;5184;51.376;7.148;2023-08-06T14:18:15;4.50;;;3.70;;
10277;SDS011;5184;51.376;7.148;2023-08-06T14:20:41;4.43;;;4.03;;
10277;SDS011;5184;51.376;7.148;2023-08-06T14:23:08;5.13;;;3.80;;
10277;SDS011;5184;51.376;7.148;2023-08-06T14:25:34;4.73;;;3.73;;
10277;SDS011;5184;51.376;7.148;2023-08-06T14:28:01;5.67;;;3.97;;
10277;SDS011;5184;51.376;7.148;2023-08-06T14:30:28;5.37;;;3.80;;
10277;SDS011;5184;51.376;7.148;2023-08-06T14:32:56;4.40;;;4.00;;
10277;SDS011;5184;51.376;7.148;2023-08-06T14:35:22;4.10;;;3.70;;
10277;SDS011;5184;51.376;7.148;2023-08-06T14:37:49;4.60;;;4.20;;
10277;SDS011;5184;51.376;7.148;2023-08-06T14:42:59;4.77;;;4.20;;
10277;SDS011;5184;51.376;7.148;2023-08-06T14:45:25;5.27;;;4.30;;
10277;SDS011;5184;51.376;7.148;2023-08-06T14:47:52;6.40;;;4.50;;
10277;SDS011;5184;51.376;7.148;2023-08-06T14:50:20;4.70;;;4.30;;
10277;SDS011;5184;51.376;7.148;2023-08-06T14:52:46;5.00;;;4.30;;
10277;SDS011;5184;51.376;7.148;2023-08-06T14:55:28;4.30;;;3.90;;
10277;SDS011;5184;51.376;7.148;2023-08-06T14:57:54;6.27;;;4.17;;
10277;SDS011;5184;51.376;7.148;2023-08-06T15:00:21;4.50;;;4.03;;
10277;SDS011;5184;51.376;7.148;2023-08-06T15:02:48;4.90;;;4.27;;
10277;SDS011;5184;51.376;7.148;2023-08-06T15:05:15;4.23;;;3.83;;
10277;SDS011;5184;51.376;7.148;2023-08-06T15:07:41;4.13;;;3.63;;